Time;durP1;ratioP1;P1;durP2;ratioP2;P2;SDS_P1;SDS_P2;PMS_P1;PMS_P2;Temp;Humidity;BMP_temperature;BMP_pressure;BME280_temperature;BME280_humidity;BME280_pressure;Samples;Min_cycle;Max_cycle;Signal;HPM_P1;HPM_P2
2022/03/25 00:01:20;;;;;;;107.07;48.25;;;;;;;;;;5012915;28;100808;-72
2022/03/25 00:03:47;;;;;;;103.90;48.47;;;;;;;;;;4991058;28;102153;-71
2022/03/25 00:06:14;;;;;;;101.30;48.90;;;;;;;;;;4991761;28;100209;-71
2022/03/25 00:08:41;;;;;;;108.40;52.25;;;;;;;;;;4992195;28;100138;-71
2022/03/25 00:11:08;;;;;;;110.50;52.33;;;;;;;;;;4992415;28;100304;-71
2022/03/25 00:13:34;;;;;;;103.43;49.70;;;;;;;;;;4992446;28;100620;-71
2022/03/25 00:16:05;;;;;;;99.15;46.65;;;;;;;;;;4991575;28;100044;-71
2022/03/25 00:18:32;;;;;;;93.13;45.20;;;;;;;;;;4991913;28;100147;-70
2022/03/25 00:20:59;;;;;;;89.50;43.42;;;;;;;;;;4974609;28;100323;-71
2022/03/25 00:23:26;;;;;;;83.93;42.00;;;;;;;;;;4990598;28;100701;-72
2022/03/25 00:25:53;;;;;;;88.38;40.15;;;;;;;;;;4991340;28;100061;-72
2022/03/25 00:28:20;;;;;;;73.18;36.55;;;;;;;;;;4991715;28;100223;-73
2022/03/25 00:30:47;;;;;;;73.63;36.78;;;;;;;;;;4990743;28;100352;-73
2022/03/25 00:33:14;;;;;;;70.03;34.88;;;;;;;;;;4991009;28;100627;-72
2022/03/25 00:35:41;;;;;;;68.97;32.50;;;;;;;;;;4990871;28;100078;-73
2022/03/25 00:38:08;;;;;;;69.60;34.28;;;;;;;;;;4958924;28;100076;-73
2022/03/25 00:40:35;;;;;;;72.32;31.95;;;;;;;;;;4974447;28;100318;-72
2022/03/25 00:43:02;;;;;;;59.80;32.58;;;;;;;;;;4975803;28;100629;-73
2022/03/25 00:45:31;;;;;;;76.97;32.13;;;;;;;;;;4978272;28;100126;-72
2022/03/25 00:47:59;;;;;;;62.58;32.42;;;;;;;;;;4993828;28;100189;-72
2022/03/25 00:50:28;;;;;;;64.32;33.45;;;;;;;;;;4962487;28;100417;-73
2022/03/25 00:52:55;;;;;;;66.22;33.55;;;;;;;;;;5011772;28;100561;-72
2022/03/25 00:55:22;;;;;;;63.30;32.33;;;;;;;;;;4993877;28;100141;-73
2022/03/25 00:57:49;;;;;;;63.03;33.28;;;;;;;;;;5011995;28;100029;-73
2022/03/25 01:00:16;;;;;;;64.43;31.35;;;;;;;;;;4977884;28;100140;-73
2022/03/25 01:02:43;;;;;;;61.17;32.15;;;;;;;;;;5016244;28;100630;-73
2022/03/25 01:05:10;;;;;;;62.35;29.38;;;;;;;;;;5014254;28;100191;-72
2022/03/25 01:07:37;;;;;;;60.35;28.80;;;;;;;;;;5014278;28;100089;-73
2022/03/25 01:10:04;;;;;;;54.40;29.15;;;;;;;;;;5014161;28;100821;-71
2022/03/25 01:12:31;;;;;;;59.67;29.67;;;;;;;;;;5013380;28;100988;-71
2022/03/25 01:14:58;;;;;;;56.05;26.65;;;;;;;;;;5013100;28;100203;-71
2022/03/25 01:17:25;;;;;;;57.60;27.38;;;;;;;;;;5003016;28;102707;-71
2022/03/25 01:19:52;;;;;;;47.78;26.75;;;;;;;;;;4993417;28;100344;-71
2022/03/25 01:22:19;;;;;;;51.53;26.83;;;;;;;;;;5010687;28;100562;-71
2022/03/25 01:24:45;;;;;;;59.38;27.95;;;;;;;;;;4977333;28;100210;-70
2022/03/25 01:27:12;;;;;;;57.03;27.23;;;;;;;;;;5012333;28;100080;-71
2022/03/25 01:29:39;;;;;;;55.13;26.48;;;;;;;;;;4976799;28;102844;-71
2022/03/25 01:32:08;;;;;;;58.75;29.00;;;;;;;;;;4992839;28;101110;-71
2022/03/25 01:34:35;;;;;;;57.30;29.40;;;;;;;;;;4977185;28;100294;-71
2022/03/25 01:37:03;;;;;;;55.78;28.63;;;;;;;;;;5008266;28;100352;-71
2022/03/25 01:39:30;;;;;;;56.92;30.17;;;;;;;;;;4976490;28;100876;-71
2022/03/25 01:41:57;;;;;;;57.10;30.13;;;;;;;;;;4991275;28;103301;-72
2022/03/25 01:44:25;;;;;;;60.88;28.15;;;;;;;;;;4960663;28;100117;-72
2022/03/25 01:46:55;;;;;;;61.00;29.55;;;;;;;;;;4990656;28;100669;-73
2022/03/25 01:49:22;;;;;;;58.40;29.17;;;;;;;;;;4974777;28;101365;-73
2022/03/25 01:51:52;;;;;;;62.60;29.02;;;;;;;;;;4992239;28;100923;-72
2022/03/25 01:54:22;;;;;;;50.28;28.27;;;;;;;;;;4978073;28;100124;-72
2022/03/25 01:57:03;;;;;;;55.17;29.13;;;;;;;;;;4993035;28;101200;-72
2022/03/25 01:59:30;;;;;;;52.80;26.17;;;;;;;;;;4976439;28;101249;-72
2022/03/25 02:01:57;;;;;;;49.13;26.17;;;;;;;;;;4993432;28;100580;-72
2022/03/25 02:04:25;;;;;;;49.55;25.85;;;;;;;;;;4975994;28;100705;-72
2022/03/25 02:06:52;;;;;;;46.80;25.17;;;;;;;;;;4992869;28;100087;-72
2022/03/25 02:09:21;;;;;;;51.50;26.10;;;;;;;;;;4979070;28;101501;-72
2022/03/25 02:11:48;;;;;;;48.92;24.13;;;;;;;;;;4979089;28;100743;-72
2022/03/25 02:14:16;;;;;;;44.38;22.20;;;;;;;;;;5011392;28;100706;-72
2022/03/25 02:16:44;;;;;;;47.20;23.13;;;;;;;;;;4963949;28;100514;-72
2022/03/25 02:19:12;;;;;;;38.72;21.42;;;;;;;;;;5013311;28;100132;-72
2022/03/25 02:21:40;;;;;;;44.00;20.67;;;;;;;;;;4996426;28;102102;-71
2022/03/25 02:24:08;;;;;;;39.85;21.20;;;;;;;;;;4979928;28;100113;-71
2022/03/25 02:26:37;;;;;;;44.13;19.55;;;;;;;;;;5012508;28;100156;-71
2022/03/25 02:29:07;;;;;;;36.42;20.35;;;;;;;;;;5012301;28;100120;-72
2022/03/25 02:31:34;;;;;;;43.00;21.17;;;;;;;;;;4985038;28;101911;-72
2022/03/25 02:34:03;;;;;;;44.50;21.08;;;;;;;;;;5009400;28;100062;-73
2022/03/25 02:36:42;;;;;;;40.10;21.48;;;;;;;;;;4976401;28;100181;-73
2022/03/25 02:39:09;;;;;;;35.58;19.25;;;;;;;;;;4990046;28;101750;-72
2022/03/25 02:41:36;;;;;;;36.50;19.58;;;;;;;;;;4975670;28;100776;-73
2022/03/25 02:44:03;;;;;;;40.63;21.35;;;;;;;;;;4976251;28;100089;-72
2022/03/25 02:46:30;;;;;;;48.58;20.23;;;;;;;;;;4975707;28;100226;-72
2022/03/25 02:48:57;;;;;;;44.10;19.88;;;;;;;;;;4974827;28;100298;-72
2022/03/25 02:51:25;;;;;;;42.67;20.50;;;;;;;;;;4974841;28;102524;-72
2022/03/25 02:53:51;;;;;;;38.63;21.17;;;;;;;;;;4958922;28;100171;-72
2022/03/25 02:56:18;;;;;;;41.50;21.42;;;;;;;;;;4991351;28;100044;-72
2022/03/25 02:58:45;;;;;;;40.45;20.17;;;;;;;;;;4944599;28;102937;-72
2022/03/25 03:01:13;;;;;;;42.58;22.90;;;;;;;;;;4978828;28;100744;-72
2022/03/25 03:03:40;;;;;;;45.67;21.83;;;;;;;;;;4991690;28;100272;-71
2022/03/25 03:06:07;;;;;;;44.88;21.73;;;;;;;;;;4992180;28;100131;-71
2022/03/25 03:08:35;;;;;;;45.25;22.08;;;;;;;;;;4975086;28;100544;-72
2022/03/25 03:11:02;;;;;;;41.78;20.27;;;;;;;;;;4993082;28;100593;-71
2022/03/25 03:13:29;;;;;;;45.20;21.02;;;;;;;;;;4962982;28;100288;-71
2022/03/25 03:15:56;;;;;;;44.28;22.02;;;;;;;;;;4995826;28;100172;-72
2022/03/25 03:18:23;;;;;;;43.33;21.00;;;;;;;;;;4978760;28;100428;-72
2022/03/25 03:20:50;;;;;;;40.47;20.52;;;;;;;;;;4978701;28;100114;-72
2022/03/25 03:23:17;;;;;;;39.67;20.65;;;;;;;;;;5010812;28;100207;-73
2022/03/25 03:25:44;;;;;;;41.75;20.98;;;;;;;;;;4995989;28;100297;-73
2022/03/25 03:28:11;;;;;;;40.40;20.77;;;;;;;;;;4958337;28;100840;-72
2022/03/25 03:30:38;;;;;;;40.97;20.38;;;;;;;;;;4991820;28;103501;-72
2022/03/25 03:33:05;;;;;;;43.05;19.20;;;;;;;;;;4994150;28;100051;-72
2022/03/25 03:35:34;;;;;;;40.55;19.95;;;;;;;;;;4960601;28;100053;-72
2022/03/25 03:38:01;;;;;;;42.55;21.00;;;;;;;;;;4976231;28;100288;-72
2022/03/25 03:40:29;;;;;;;40.40;19.58;;;;;;;;;;4976176;28;100683;-72
2022/03/25 03:42:55;;;;;;;38.22;19.80;;;;;;;;;;4976186;28;100256;-72
2022/03/25 03:45:22;;;;;;;40.53;20.40;;;;;;;;;;4992021;28;100446;-72
2022/03/25 03:47:49;;;;;;;35.35;18.90;;;;;;;;;;4991602;28;100153;-72
2022/03/25 03:50:16;;;;;;;39.88;19.33;;;;;;;;;;4993274;28;100657;-72
2022/03/25 03:52:43;;;;;;;36.55;18.58;;;;;;;;;;4976473;28;99820;-71
2022/03/25 03:55:10;;;;;;;38.20;18.35;;;;;;;;;;4975163;28;100079;-72
2022/03/25 03:57:56;;;;;;;42.58;20.73;;;;;;;;;;4984090;28;100260;-72
2022/03/25 04:00:24;;;;;;;37.08;18.98;;;;;;;;;;4979010;28;100855;-72
2022/03/25 04:02:51;;;;;;;33.65;17.67;;;;;;;;;;4997755;28;99850;-72
2022/03/25 04:05:18;;;;;;;38.47;20.45;;;;;;;;;;4995107;28;100534;-72
2022/03/25 04:07:47;;;;;;;41.10;18.40;;;;;;;;;;5013466;28;100362;-71
2022/03/25 04:10:14;;;;;;;42.60;19.92;;;;;;;;;;5011062;28;100765;-71
2022/03/25 04:12:41;;;;;;;35.80;18.75;;;;;;;;;;4978611;28;100224;-73
2022/03/25 04:15:12;;;;;;;41.00;20.65;;;;;;;;;;4995630;28;100075;-72
2022/03/25 04:17:39;;;;;;;38.03;20.05;;;;;;;;;;4995120;28;100509;-72
2022/03/25 04:20:07;;;;;;;43.30;19.38;;;;;;;;;;4990158;28;100561;-72
2022/03/25 04:22:34;;;;;;;34.53;17.90;;;;;;;;;;4992569;28;100164;-72
2022/03/25 04:25:01;;;;;;;37.65;18.20;;;;;;;;;;4991180;28;100167;-72
2022/03/25 04:27:28;;;;;;;37.42;18.83;;;;;;;;;;4992625;28;100247;-72
2022/03/25 04:29:55;;;;;;;32.05;17.08;;;;;;;;;;4959397;28;100815;-72
2022/03/25 04:32:22;;;;;;;30.73;16.45;;;;;;;;;;4992977;28;99838;-72
2022/03/25 04:34:49;;;;;;;30.48;17.35;;;;;;;;;;4956714;28;100133;-72
2022/03/25 04:37:15;;;;;;;33.63;18.90;;;;;;;;;;4991983;28;100292;-71
2022/03/25 04:39:42;;;;;;;37.10;17.10;;;;;;;;;;4957230;28;100760;-72
2022/03/25 04:42:09;;;;;;;30.85;16.58;;;;;;;;;;4993351;28;100198;-72
2022/03/25 04:44:36;;;;;;;33.55;15.63;;;;;;;;;;4994480;28;100172;-73
2022/03/25 04:47:03;;;;;;;30.33;16.38;;;;;;;;;;5012532;28;100277;-72
2022/03/25 04:49:30;;;;;;;31.98;17.40;;;;;;;;;;5011194;28;100671;-73
2022/03/25 04:51:57;;;;;;;31.75;17.02;;;;;;;;;;4989971;28;100074;-73
2022/03/25 04:54:24;;;;;;;25.73;15.10;;;;;;;;;;4991755;28;100107;-73
2022/03/25 04:56:50;;;;;;;29.33;17.02;;;;;;;;;;4992472;28;100582;-74
2022/03/25 04:59:17;;;;;;;34.65;16.85;;;;;;;;;;4991936;28;100632;-74
2022/03/25 05:01:44;;;;;;;30.30;16.05;;;;;;;;;;4973103;28;100102;-72
2022/03/25 05:04:11;;;;;;;32.47;16.70;;;;;;;;;;4987585;28;100160;-72
2022/03/25 05:06:38;;;;;;;29.75;16.23;;;;;;;;;;4991362;28;100356;-72
2022/03/25 05:09:06;;;;;;;33.08;16.67;;;;;;;;;;4985771;28;100842;-72
2022/03/25 05:11:33;;;;;;;32.50;17.45;;;;;;;;;;4986413;28;99950;-72
2022/03/25 05:14:00;;;;;;;37.47;18.67;;;;;;;;;;4942881;28;99956;-72
2022/03/25 05:16:27;;;;;;;41.08;20.10;;;;;;;;;;4990764;28;100397;-70
2022/03/25 05:18:54;;;;;;;40.25;19.35;;;;;;;;;;4990913;28;100543;-72
2022/03/25 05:21:21;;;;;;;32.92;18.05;;;;;;;;;;4990841;28;100050;-72
2022/03/25 05:23:48;;;;;;;33.05;17.52;;;;;;;;;;4990953;28;100156;-71
2022/03/25 05:26:16;;;;;;;33.33;16.35;;;;;;;;;;4991471;28;100267;-71
2022/03/25 05:28:48;;;;;;;34.90;18.02;;;;;;;;;;4992008;28;100670;-71
2022/03/25 05:31:15;;;;;;;35.60;18.38;;;;;;;;;;4990962;28;103136;-72
2022/03/25 05:33:49;;;;;;;36.40;18.60;;;;;;;;;;4975241;28;99962;-72
2022/03/25 05:36:16;;;;;;;34.22;18.42;;;;;;;;;;4990658;28;100241;-72
2022/03/25 05:38:42;;;;;;;35.00;17.52;;;;;;;;;;4989066;28;101674;-72
2022/03/25 05:41:09;;;;;;;36.05;18.73;;;;;;;;;;4974234;28;100070;-72
2022/03/25 05:43:36;;;;;;;34.95;18.23;;;;;;;;;;4992728;28;100929;-72
2022/03/25 05:46:06;;;;;;;37.95;19.23;;;;;;;;;;4989525;28;102489;-72
2022/03/25 05:48:33;;;;;;;32.45;17.55;;;;;;;;;;4989888;28;100594;-72
2022/03/25 05:50:59;;;;;;;31.75;18.33;;;;;;;;;;4973909;28;100204;-73
2022/03/25 05:53:26;;;;;;;34.65;18.30;;;;;;;;;;4991840;28;100041;-73
2022/03/25 05:55:53;;;;;;;36.35;18.45;;;;;;;;;;4990320;28;100241;-72
2022/03/25 05:58:20;;;;;;;34.95;18.60;;;;;;;;;;4990106;28;100594;-72
2022/03/25 06:00:47;;;;;;;33.92;19.67;;;;;;;;;;4973656;28;100263;-72
2022/03/25 06:03:14;;;;;;;39.60;20.02;;;;;;;;;;4993139;28;100101;-72
2022/03/25 06:05:41;;;;;;;36.40;19.83;;;;;;;;;;5010861;28;100316;-72
2022/03/25 06:08:09;;;;;;;32.15;18.05;;;;;;;;;;5011410;28;100649;-72
2022/03/25 06:10:36;;;;;;;33.83;18.63;;;;;;;;;;5011769;28;100287;-72
2022/03/25 06:13:03;;;;;;;32.53;18.00;;;;;;;;;;4976216;28;100059;-73
2022/03/25 06:15:30;;;;;;;33.30;17.98;;;;;;;;;;5013162;28;100538;-73
2022/03/25 06:17:57;;;;;;;38.03;19.23;;;;;;;;;;5031351;28;100752;-72
2022/03/25 06:20:24;;;;;;;33.55;18.17;;;;;;;;;;4997050;28;99935;-72
2022/03/25 06:22:51;;;;;;;34.58;18.38;;;;;;;;;;4997086;28;100181;-72
2022/03/25 06:25:18;;;;;;;30.38;18.42;;;;;;;;;;5012944;28;100263;-72
2022/03/25 06:27:49;;;;;;;49.55;19.10;;;;;;;;;;5013234;28;101875;-72
2022/03/25 06:30:16;;;;;;;37.28;18.45;;;;;;;;;;5013715;28;100809;-72
2022/03/25 06:32:43;;;;;;;32.70;18.50;;;;;;;;;;5032408;27;100327;-72
2022/03/25 06:35:10;;;;;;;38.65;19.52;;;;;;;;;;5034482;28;100495;-72
2022/03/25 06:37:37;;;;;;;34.40;17.83;;;;;;;;;;5034125;28;100774;-72
2022/03/25 06:40:07;;;;;;;40.40;18.60;;;;;;;;;;5016667;28;100073;-72
2022/03/25 06:42:34;;;;;;;46.28;19.80;;;;;;;;;;5010534;28;100040;-72
2022/03/25 06:45:07;;;;;;;38.97;17.33;;;;;;;;;;4996766;28;100153;-72
2022/03/25 06:47:34;;;;;;;37.72;17.85;;;;;;;;;;4996657;28;100696;-73
2022/03/25 06:50:05;;;;;;;35.47;18.23;;;;;;;;;;5015033;28;101685;-73
2022/03/25 06:52:32;;;;;;;32.50;17.15;;;;;;;;;;5034701;28;100129;-72
2022/03/25 06:54:59;;;;;;;36.67;17.35;;;;;;;;;;5015999;28;101531;-72
2022/03/25 06:57:26;;;;;;;40.35;16.73;;;;;;;;;;5016529;28;101037;-71
2022/03/25 06:59:53;;;;;;;35.17;16.88;;;;;;;;;;5016765;28;100226;-72
2022/03/25 07:02:20;;;;;;;37.47;17.98;;;;;;;;;;5001373;28;100036;-72
2022/03/25 07:04:48;;;;;;;34.92;18.25;;;;;;;;;;4975446;28;103680;-72
2022/03/25 07:07:18;;;;;;;35.85;17.88;;;;;;;;;;4976394;28;100808;-72
2022/03/25 07:09:45;;;;;;;33.25;16.42;;;;;;;;;;4960998;28;99837;-72
2022/03/25 07:12:15;;;;;;;35.13;16.75;;;;;;;;;;4960598;28;99987;-73
2022/03/25 07:14:41;;;;;;;39.35;19.23;;;;;;;;;;4992664;28;100495;-73
2022/03/25 07:17:08;;;;;;;36.88;18.33;;;;;;;;;;4992679;28;100536;-73
2022/03/25 07:19:35;;;;;;;33.35;19.05;;;;;;;;;;4987470;28;99835;-73
2022/03/25 07:22:02;;;;;;;36.25;18.88;;;;;;;;;;4993369;28;100226;-72
2022/03/25 07:24:29;;;;;;;34.65;18.90;;;;;;;;;;4975593;28;100551;-71
2022/03/25 07:26:56;;;;;;;43.53;20.23;;;;;;;;;;4992310;28;101155;-72
2022/03/25 07:29:23;;;;;;;38.97;20.92;;;;;;;;;;4959131;28;100138;-72
2022/03/25 07:31:50;;;;;;;38.08;19.75;;;;;;;;;;4992459;28;100104;-71
2022/03/25 07:34:17;;;;;;;44.15;21.33;;;;;;;;;;4991594;28;101722;-72
2022/03/25 07:36:44;;;;;;;46.03;23.45;;;;;;;;;;4992408;28;100569;-72
2022/03/25 07:39:10;;;;;;;40.50;21.92;;;;;;;;;;4941185;28;100173;-73
2022/03/25 07:41:37;;;;;;;43.80;23.30;;;;;;;;;;4992479;28;99990;-73
2022/03/25 07:44:04;;;;;;;46.50;23.15;;;;;;;;;;4959463;28;102786;-72
2022/03/25 07:46:31;;;;;;;50.20;25.75;;;;;;;;;;4992306;28;100653;-73
2022/03/25 07:48:58;;;;;;;50.28;27.83;;;;;;;;;;4992891;28;100148;-73
2022/03/25 07:51:25;;;;;;;54.28;27.88;;;;;;;;;;4958472;28;102522;-73
2022/03/25 07:53:52;;;;;;;49.38;28.90;;;;;;;;;;4992074;28;100363;-73
2022/03/25 07:56:18;;;;;;;51.50;27.85;;;;;;;;;;4993076;28;100594;-73
2022/03/25 07:58:45;;;;;;;49.75;29.35;;;;;;;;;;4990524;28;100652;-73
2022/03/25 08:01:12;;;;;;;61.97;30.55;;;;;;;;;;4991020;28;100155;-73
2022/03/25 08:03:39;;;;;;;53.42;31.63;;;;;;;;;;5001667;28;100735;-74
2022/03/25 08:06:08;;;;;;;54.67;30.45;;;;;;;;;;5011356;28;100625;-72
2022/03/25 08:08:36;;;;;;;56.97;30.35;;;;;;;;;;4978534;28;99963;-73
2022/03/25 08:11:04;;;;;;;62.45;33.58;;;;;;;;;;4994273;28;100552;-73
2022/03/25 08:13:31;;;;;;;59.63;32.67;;;;;;;;;;4977918;28;101293;-73
2022/03/25 08:15:58;;;;;;;58.75;32.53;;;;;;;;;;4961829;28;101174;-73
2022/03/25 08:18:25;;;;;;;61.42;30.63;;;;;;;;;;4995227;28;99961;-73
2022/03/25 08:20:53;;;;;;;58.58;30.60;;;;;;;;;;5013085;28;100071;-73
2022/03/25 08:28:53;;;;;;;55.35;27.88;;;;;;;;;;4997836;28;100154;-71
2022/03/25 08:31:40;;;;;;;48.40;26.35;;;;;;;;;;4981163;28;99986;-71
2022/03/25 08:34:08;;;;;;;48.83;24.63;;;;;;;;;;5012246;28;100261;-72
2022/03/25 08:36:35;;;;;;;45.33;25.75;;;;;;;;;;4993448;28;100591;-72
2022/03/25 08:39:02;;;;;;;42.58;23.70;;;;;;;;;;5012066;28;100070;-75
2022/03/25 08:41:29;;;;;;;45.70;23.13;;;;;;;;;;4996231;28;100026;-72
2022/03/25 08:43:56;;;;;;;36.83;22.27;;;;;;;;;;4993757;28;100135;-72
2022/03/25 08:46:23;;;;;;;45.15;23.38;;;;;;;;;;5011850;28;101735;-72
2022/03/25 08:48:50;;;;;;;47.15;23.08;;;;;;;;;;5012283;28;100124;-72
2022/03/25 08:51:19;;;;;;;43.22;23.45;;;;;;;;;;5012257;28;100216;-72
2022/03/25 08:53:46;;;;;;;42.75;23.17;;;;;;;;;;5011719;28;101744;-72
2022/03/25 08:56:13;;;;;;;41.45;21.80;;;;;;;;;;5027000;28;102302;-73
2022/03/25 08:58:41;;;;;;;41.50;22.13;;;;;;;;;;4997431;28;102311;-72
2022/03/25 09:01:10;;;;;;;35.42;20.58;;;;;;;;;;5012734;28;100100;-72
2022/03/25 09:03:37;;;;;;;38.53;22.13;;;;;;;;;;5011116;28;100322;-72
2022/03/25 09:06:04;;;;;;;40.03;20.98;;;;;;;;;;4977123;28;103267;-73
2022/03/25 09:08:33;;;;;;;40.80;20.50;;;;;;;;;;4977862;28;100127;-73
2022/03/25 09:11:00;;;;;;;39.17;21.58;;;;;;;;;;5012043;28;99962;-73
2022/03/25 09:13:27;;;;;;;39.22;21.95;;;;;;;;;;5010461;28;100251;-73
2022/03/25 09:15:54;;;;;;;40.90;23.38;;;;;;;;;;4992961;28;101865;-74
2022/03/25 09:18:21;;;;;;;40.03;22.15;;;;;;;;;;5007783;28;100374;-72
2022/03/25 09:20:48;;;;;;;39.13;21.98;;;;;;;;;;5002018;28;100508;-73
2022/03/25 09:23:15;;;;;;;38.65;21.30;;;;;;;;;;4996995;28;100268;-72
2022/03/25 09:25:42;;;;;;;42.05;21.15;;;;;;;;;;5002608;28;100698;-72
2022/03/25 09:28:09;;;;;;;33.15;20.30;;;;;;;;;;5011116;28;100276;-72
2022/03/25 09:30:36;;;;;;;38.35;19.92;;;;;;;;;;4991319;28;100327;-72
2022/03/25 09:33:03;;;;;;;32.97;19.25;;;;;;;;;;5010893;28;100367;-72
2022/03/25 09:35:37;;;;;;;33.63;20.10;;;;;;;;;;4959036;28;100772;-73
2022/03/25 09:38:04;;;;;;;35.25;20.45;;;;;;;;;;5010436;28;100039;-73
2022/03/25 09:40:31;;;;;;;36.15;20.83;;;;;;;;;;5010673;28;100090;-73
2022/03/25 09:42:58;;;;;;;37.40;21.50;;;;;;;;;;4991588;28;100510;-72
2022/03/25 09:45:26;;;;;;;36.35;20.70;;;;;;;;;;4993168;28;101656;-73
2022/03/25 09:47:54;;;;;;;37.38;21.52;;;;;;;;;;4975884;28;100164;-73
2022/03/25 09:50:23;;;;;;;32.35;18.90;;;;;;;;;;5010868;28;100118;-72
2022/03/25 09:52:50;;;;;;;25.85;15.30;;;;;;;;;;4996957;28;100341;-71
2022/03/25 09:55:42;;;;;;;31.10;16.13;;;;;;;;;;5004424;28;100668;-73
2022/03/25 09:58:18;;;;;;;26.70;15.43;;;;;;;;;;4959491;28;100211;-71
2022/03/25 10:00:50;;;;;;;28.83;15.85;;;;;;;;;;4977825;28;100251;-72
2022/03/25 10:03:32;;;;;;;30.00;16.45;;;;;;;;;;5017395;28;100518;-71
2022/03/25 10:06:01;;;;;;;25.88;14.88;;;;;;;;;;5008548;28;100599;-72
2022/03/25 10:08:39;;;;;;;24.08;13.70;;;;;;;;;;4997270;28;100060;-72
2022/03/25 10:11:22;;;;;;;28.92;16.42;;;;;;;;;;4996764;28;100113;-72
2022/03/25 10:14:10;;;;;;;27.00;16.38;;;;;;;;;;5012935;28;100574;-72
2022/03/25 10:16:37;;;;;;;28.95;16.75;;;;;;;;;;4989999;28;100807;-72
2022/03/25 10:19:03;;;;;;;31.05;17.30;;;;;;;;;;4979859;28;100012;-73
2022/03/25 10:21:31;;;;;;;30.10;17.52;;;;;;;;;;5011314;28;100295;-72
2022/03/25 10:23:58;;;;;;;35.15;18.92;;;;;;;;;;4978926;28;101500;-73
2022/03/25 10:26:35;;;;;;;29.00;16.58;;;;;;;;;;5011980;28;100144;-73
2022/03/25 10:29:02;;;;;;;28.92;17.52;;;;;;;;;;5028221;28;100093;-72
2022/03/25 10:31:28;;;;;;;27.38;17.38;;;;;;;;;;5010569;28;100054;-73
2022/03/25 10:34:00;;;;;;;25.30;15.70;;;;;;;;;;5000726;28;100537;-73
2022/03/25 10:36:27;;;;;;;28.77;16.38;;;;;;;;;;4983268;28;102013;-72
2022/03/25 10:38:58;;;;;;;33.90;18.10;;;;;;;;;;4996651;28;100055;-73
2022/03/25 10:41:27;;;;;;;28.10;16.98;;;;;;;;;;5014318;28;100165;-71
2022/03/25 10:44:04;;;;;;;27.38;14.52;;;;;;;;;;4993199;28;100306;-72
2022/03/25 10:46:41;;;;;;;27.08;14.45;;;;;;;;;;5012700;28;100973;-72
2022/03/25 10:49:18;;;;;;;24.50;15.07;;;;;;;;;;4995823;28;100198;-73
2022/03/25 10:51:56;;;;;;;28.60;15.85;;;;;;;;;;5001385;28;100371;-73
2022/03/25 10:54:24;;;;;;;28.27;15.48;;;;;;;;;;5026222;28;100434;-74
2022/03/25 10:56:59;;;;;;;27.83;16.35;;;;;;;;;;5012593;28;100658;-74
2022/03/25 10:59:32;;;;;;;25.95;16.67;;;;;;;;;;5013237;28;100031;-72
2022/03/25 11:02:04;;;;;;;25.83;15.27;;;;;;;;;;4996483;28;100129;-72
2022/03/25 11:04:31;;;;;;;24.55;14.48;;;;;;;;;;4978170;28;100665;-75
2022/03/25 11:06:58;;;;;;;28.70;15.80;;;;;;;;;;4994213;28;100629;-73
2022/03/25 11:09:27;;;;;;;23.30;13.38;;;;;;;;;;5000919;28;101321;-72
2022/03/25 11:11:57;;;;;;;22.75;12.75;;;;;;;;;;4976017;28;100226;-72
2022/03/25 11:14:24;;;;;;;25.40;13.65;;;;;;;;;;5009958;28;101731;-72
2022/03/25 11:16:59;;;;;;;26.45;14.85;;;;;;;;;;5005220;28;101880;-73
2022/03/25 11:19:26;;;;;;;26.73;13.80;;;;;;;;;;4993777;28;100168;-73
2022/03/25 11:21:57;;;;;;;27.55;14.75;;;;;;;;;;4994870;28;100382;-72
2022/03/25 11:24:36;;;;;;;28.10;14.13;;;;;;;;;;4989272;28;102586;-73
2022/03/25 11:27:07;;;;;;;28.27;16.00;;;;;;;;;;4980676;28;101475;-73
2022/03/25 11:29:34;;;;;;;27.05;16.33;;;;;;;;;;5013963;28;103072;-72
2022/03/25 11:32:14;;;;;;;27.25;14.48;;;;;;;;;;4998135;28;100042;-72
2022/03/25 11:34:45;;;;;;;25.23;14.77;;;;;;;;;;5014212;28;100539;-72
2022/03/25 11:37:22;;;;;;;23.73;12.60;;;;;;;;;;5031479;28;100543;-72
2022/03/25 11:40:14;;;;;;;22.45;13.20;;;;;;;;;;5017851;28;100178;-73
2022/03/25 11:42:45;;;;;;;20.25;12.32;;;;;;;;;;5011758;28;100140;-72
2022/03/25 11:45:21;;;;;;;25.02;12.27;;;;;;;;;;5010116;28;100353;-73
2022/03/25 11:48:00;;;;;;;26.45;13.55;;;;;;;;;;5011590;28;100655;-72
2022/03/25 11:50:28;;;;;;;22.27;12.57;;;;;;;;;;4993851;28;100159;-73
2022/03/25 11:52:56;;;;;;;27.35;13.55;;;;;;;;;;4960622;28;100410;-73
2022/03/25 11:55:23;;;;;;;24.55;13.35;;;;;;;;;;4990292;28;100232;-72
2022/03/25 11:57:50;;;;;;;26.23;14.07;;;;;;;;;;4975724;28;100651;-72
2022/03/25 12:00:27;;;;;;;20.63;12.65;;;;;;;;;;5011614;28;100093;-73
2022/03/25 12:03:03;;;;;;;24.35;13.30;;;;;;;;;;4965738;28;1300163;-72
2022/03/25 12:05:35;;;;;;;26.55;12.80;;;;;;;;;;5012329;28;100227;-72
2022/03/25 12:08:20;;;;;;;22.58;14.05;;;;;;;;;;4993541;28;100615;-72
2022/03/25 12:10:49;;;;;;;23.10;13.45;;;;;;;;;;4993974;28;100087;-72
2022/03/25 12:13:17;;;;;;;29.55;14.07;;;;;;;;;;4993454;28;100118;-72
2022/03/25 12:15:47;;;;;;;28.98;14.13;;;;;;;;;;4978401;28;100285;-72
2022/03/25 12:18:46;;;;;;;23.70;14.68;;;;;;;;;;5013105;28;103394;-71
2022/03/25 12:21:25;;;;;;;24.13;13.32;;;;;;;;;;5032290;28;100319;-72
2022/03/25 12:23:55;;;;;;;23.00;13.70;;;;;;;;;;4998197;28;100613;-72
2022/03/25 12:26:32;;;;;;;29.50;15.50;;;;;;;;;;5026685;28;100123;-73
2022/03/25 12:28:59;;;;;;;26.20;14.35;;;;;;;;;;5012318;28;100655;-75
2022/03/25 12:31:26;;;;;;;26.85;14.88;;;;;;;;;;4993045;28;99904;-72
2022/03/25 12:33:57;;;;;;;27.63;14.73;;;;;;;;;;4976751;28;100145;-73
2022/03/25 12:36:24;;;;;;;34.50;15.38;;;;;;;;;;4975338;28;100477;-73
2022/03/25 12:38:55;;;;;;;26.52;14.65;;;;;;;;;;4961639;28;100542;-73
2022/03/25 12:41:28;;;;;;;23.75;13.02;;;;;;;;;;5012805;28;100234;-72
2022/03/25 12:44:15;;;;;;;24.95;13.02;;;;;;;;;;5008408;28;100136;-72
2022/03/25 12:46:42;;;;;;;23.38;13.60;;;;;;;;;;4981635;28;100229;-72
2022/03/25 12:49:09;;;;;;;25.23;13.88;;;;;;;;;;4998019;28;100532;-73
2022/03/25 12:51:36;;;;;;;23.98;14.23;;;;;;;;;;5031504;28;100493;-72
2022/03/25 12:54:14;;;;;;;21.27;11.50;;;;;;;;;;4993715;28;100440;-72
2022/03/25 12:56:41;;;;;;;23.92;12.45;;;;;;;;;;4991906;28;100487;-72
2022/03/25 12:59:08;;;;;;;22.70;12.10;;;;;;;;;;4977032;28;101700;-71
2022/03/25 13:01:35;;;;;;;22.25;12.60;;;;;;;;;;5009660;28;100215;-73
2022/03/25 13:04:09;;;;;;;29.27;13.68;;;;;;;;;;5008937;28;100283;-73
2022/03/25 13:06:36;;;;;;;22.40;12.90;;;;;;;;;;4993514;28;100545;-72
2022/03/25 13:09:03;;;;;;;22.63;12.90;;;;;;;;;;5010450;28;101987;-73
2022/03/25 13:11:30;;;;;;;23.52;13.02;;;;;;;;;;4993795;28;100304;-73
2022/03/25 13:13:57;;;;;;;20.48;11.65;;;;;;;;;;5012144;28;100071;-72
2022/03/25 13:16:24;;;;;;;21.15;12.40;;;;;;;;;;4993218;28;100166;-72
2022/03/25 13:18:53;;;;;;;23.15;13.77;;;;;;;;;;4977369;28;101083;-72
2022/03/25 13:21:20;;;;;;;27.48;12.93;;;;;;;;;;5011274;28;100038;-72
2022/03/25 13:23:46;;;;;;;24.58;12.73;;;;;;;;;;4977281;28;100134;-72
2022/03/25 13:26:14;;;;;;;23.27;12.93;;;;;;;;;;5012334;28;100238;-73
2022/03/25 13:28:41;;;;;;;23.17;12.70;;;;;;;;;;4976959;28;100535;-73
2022/03/25 13:31:09;;;;;;;28.10;14.68;;;;;;;;;;4993610;28;100038;-72
2022/03/25 13:33:46;;;;;;;28.25;15.55;;;;;;;;;;5010497;28;100284;-73
2022/03/25 13:36:15;;;;;;;25.67;15.32;;;;;;;;;;4992051;28;100334;-72
2022/03/25 13:38:53;;;;;;;25.60;14.07;;;;;;;;;;4977479;28;101063;-72
2022/03/25 13:41:22;;;;;;;27.70;15.55;;;;;;;;;;5010933;28;100228;-73
2022/03/25 13:43:53;;;;;;;25.15;14.13;;;;;;;;;;4976205;28;100294;-73
2022/03/25 13:46:29;;;;;;;30.90;15.75;;;;;;;;;;4992192;28;100428;-73
2022/03/25 13:49:00;;;;;;;28.77;15.70;;;;;;;;;;5009526;28;100720;-73
2022/03/25 13:51:37;;;;;;;28.38;15.95;;;;;;;;;;4976745;28;100221;-73
2022/03/25 13:54:05;;;;;;;30.45;16.15;;;;;;;;;;5010678;28;100038;-74
2022/03/25 13:56:42;;;;;;;31.88;15.68;;;;;;;;;;4983137;28;100316;-72
2022/03/25 13:59:25;;;;;;;29.88;15.80;;;;;;;;;;4997602;28;101138;-73
2022/03/25 14:01:52;;;;;;;26.35;16.17;;;;;;;;;;5002727;28;100275;-72
2022/03/25 14:04:26;;;;;;;30.38;16.45;;;;;;;;;;5011226;28;100189;-72
2022/03/25 14:07:03;;;;;;;29.45;15.88;;;;;;;;;;4977566;28;100331;-72
2022/03/25 14:09:35;;;;;;;29.98;16.75;;;;;;;;;;4992432;28;100668;-74
2022/03/25 14:12:14;;;;;;;27.58;16.35;;;;;;;;;;4944491;28;100342;-72
2022/03/25 14:14:43;;;;;;;26.90;16.40;;;;;;;;;;5010429;28;100304;-72
2022/03/25 14:17:14;;;;;;;32.00;16.02;;;;;;;;;;5029087;28;100279;-72
2022/03/25 14:19:41;;;;;;;32.33;15.68;;;;;;;;;;5013044;28;100782;-72